createdAt,value
2022-10-18T00:00:00.000Z,6.56
2022-10-18T00:15:00.000Z,6.64
2022-10-18T00:30:00.000Z,6.87
2022-10-18T00:45:00.000Z,6.94
2022-10-18T01:00:00.000Z,6.51
2022-10-18T01:15:00.000Z,6.55
2022-10-18T01:30:00.000Z,6.35
2022-10-18T01:45:00.000Z,6.78
2022-10-18T02:00:00.000Z,6.36
2022-10-18T02:15:00.000Z,6.29
2022-10-18T02:30:00.000Z,6.64
2022-10-18T02:45:00.000Z,6.72
2022-10-18T03:00:00.000Z,6.85
2022-10-18T03:15:00.000Z,7.11
2022-10-18T03:30:00.000Z,7.08
2022-10-18T03:45:00.000Z,6.89
2022-10-18T04:00:00.000Z,7.05
2022-10-18T04:15:00.000Z,6.95
2022-10-18T04:30:00.000Z,7.6
2022-10-18T04:45:00.000Z,7.35
2022-10-18T05:00:00.000Z,9
2022-10-18T05:15:00.000Z,7.79
2022-10-18T05:30:00.000Z,8.08
2022-10-18T05:45:00.000Z,8.71
2022-10-18T06:00:00.000Z,8.86
2022-10-18T06:15:00.000Z,9.29
2022-10-18T06:30:00.000Z,7.55
2022-10-18T06:45:00.000Z,6.93
2022-10-18T07:00:00.000Z,5.54
2022-10-18T07:15:00.000Z,6.44
2022-10-18T07:30:00.000Z,6.85
2022-10-18T07:45:00.000Z,6.54
2022-10-18T08:00:00.000Z,5.28
2022-10-18T08:15:00.000Z,4.95
2022-10-18T08:30:00.000Z,4.96
2022-10-18T08:45:00.000Z,5.07
2022-10-18T09:00:00.000Z,4.93
2022-10-18T09:15:00.000Z,4.87
2022-10-18T09:30:00.000Z,4.75
2022-10-18T09:45:00.000Z,4.75
2022-10-18T10:00:00.000Z,5.09
2022-10-18T10:15:00.000Z,4.99
2022-10-18T10:30:00.000Z,4.71
2022-10-18T10:45:00.000Z,4.84
2022-10-18T11:00:00.000Z,5.18
2022-10-18T11:15:00.000Z,5.08
2022-10-18T11:30:00.000Z,5.13
2022-10-18T11:45:00.000Z,5.14
2022-10-18T12:00:00.000Z,5.01
2022-10-18T12:15:00.000Z,5.18
2022-10-18T12:30:00.000Z,5.11
2022-10-18T12:45:00.000Z,5.14
2022-10-18T13:00:00.000Z,5.2
2022-10-18T13:15:00.000Z,5.33
2022-10-18T13:30:00.000Z,5.35
2022-10-18T13:45:00.000Z,5.51
2022-10-18T14:00:00.000Z,5.59
2022-10-18T14:15:00.000Z,5.78
2022-10-18T14:30:00.000Z,5.58
2022-10-18T14:45:00.000Z,6.54
2022-10-18T15:00:00.000Z,5.87
2022-10-18T15:15:00.000Z,6
2022-10-18T15:30:00.000Z,10.73
2022-10-18T15:45:00.000Z,10.12
2022-10-18T16:00:00.000Z,7.93
2022-10-18T16:15:00.000Z,7.28
2022-10-18T16:30:00.000Z,8.26
2022-10-18T16:45:00.000Z,7.55
2022-10-18T17:00:00.000Z,10.75
2022-10-18T17:15:00.000Z,10.24
2022-10-18T17:30:00.000Z,9.54
2022-10-18T17:45:00.000Z,9.65
2022-10-18T18:00:00.000Z,10.39
2022-10-18T18:15:00.000Z,10.15
2022-10-18T18:30:00.000Z,10.11
2022-10-18T18:45:00.000Z,12.39
2022-10-18T19:00:00.000Z,10.41
2022-10-18T19:15:00.000Z,9.25
2022-10-18T19:30:00.000Z,10
2022-10-18T19:45:00.000Z,10.71
2022-10-18T20:00:00.000Z,10.54
2022-10-18T20:15:00.000Z,10.44
2022-10-18T20:30:00.000Z,10.02
2022-10-18T20:45:00.000Z,10.45
2022-10-18T21:00:00.000Z,10.78
2022-10-18T21:15:00.000Z,11.08
2022-10-18T21:30:00.000Z,11.07
2022-10-18T21:45:00.000Z,11.18
2022-10-18T22:00:00.000Z,11.32
2022-10-18T22:15:00.000Z,11.65
2022-10-18T22:30:00.000Z,11.02
2022-10-18T22:45:00.000Z,12.25
2022-10-18T23:00:00.000Z,11.33
2022-10-18T23:15:00.000Z,11.44
2022-10-18T23:30:00.000Z,11.62
2022-10-18T23:45:00.000Z,11.33
